Nearby METAR Reports

 

YSRI - Richmond (aus-Af, Australia
Distance from station: WSW 35km
Updated: 16/04/2021 12:30
Partly cloudy
Partly cloudy
 Wind from SE
Wind: SE 22 km/h
Temperature: 23°C
Dew Point: 10°C
Humidity: 44%
Barometer: 1020 hPa
Clouds: Partly cloudy
Visibility: 10 km
Cloud details: Partly cloudy 1920 m
2021/04/16 02:30 YSRI 160230Z AUTO 14012KT 9999 // SCT063 23/10 Q1020 RF00.0/000.0
YSSY - Sydney Intl Airp, Australia
Distance from station: S 47km
Updated: 16/04/2021 12:30
Mostly cloudy
Mostly cloudy
 Wind from SSE
Wind: SSE 30 km/h
Temperature: 19°C
Dew Point: 12°C
Humidity: 64%
Barometer: 1021 hPa
Clouds: Mostly cloudy
Visibility: 10 km
Cloud details: Few Clouds 853 m
Partly cloudy 1067 m
Mostly cloudy 1676 m
2021/04/16 02:30 YSSY 160230Z 16016KT 9999 FEW028 SCT035 BKN055 19/12 Q1021
 
YWLM - Williamtown Arp, Australia
Distance from station: NE 104km
Updated: 16/04/2021 12:00
Light rain, Showers, Mostly cloudy
Light rain, Showers, Mostly cloudy
 Wind from S
Wind: S 24 km/h
Temperature: 21°C
Dew Point: 13°C
Humidity: 60%
Barometer: 1020 hPa
Summary: Light rain, Showers
Clouds: Mostly cloudy
Visibility: 10 km
Cloud details: Mostly cloudy 853 m
Mostly cloudy 6096 m
2021/04/16 02:00 YWLM 160200Z 19013KT 9999 -SHRA BKN028 BKN200 21/13 Q1020
YSNW - Nowra (aus-Navy), Australia
Distance from station: SSW 168km
Updated: 16/04/2021 12:00
Mostly cloudy
Mostly cloudy
 Wind from SSE
Wind: SSE 22 km/h
Temperature: 18°C
Dew Point: 8°C
Humidity: 52%
Barometer: 1021 hPa
Clouds: Mostly cloudy
Visibility: 10 km
Cloud details: Mostly cloudy 1097 m
2021/04/16 02:00 YSNW 160200Z 15012KT 9999 BKN036 18/08 Q1021
 
YMDG - Mudgee Arpt, Australia
Distance from station: NW 177km
Updated: 16/04/2021 12:00
Clear
Clear
 Wind from E
Wind: E 17 km/h
Temperature: 19°C
Dew Point: 3°C
Humidity: 35%
Barometer: 1020 hPa
Clouds: Clear
Visibility: 10 km
2021/04/16 02:00 YMDG 160200Z AUTO 10009KT 060V150 9999 // NCD 19/03 Q1020
YTRE - Taree Airport, Australia
Distance from station: NE 224km
Updated: 16/04/2021 12:00
Clear
Clear
 Wind from W
Wind: W 15 km/h
Temperature: 21°C
Dew Point: 10°C
Humidity: 50%
Barometer: 1019 hPa
Clouds: Clear
Visibility: 10 km
2021/04/16 02:00 YTRE 160200Z AUTO 26008KT 9999 // NCD 21/10 Q1019
 
YSCB - Canberra (civ/Mi, Australia
Distance from station: SW 265km
Updated: 16/04/2021 12:30
Clear
Clear
 Wind from WNW
Wind: WNW 11 km/h
Temperature: 17°C
Dew Point: 2°C
Humidity: 37%
Barometer: 1021 hPa
Clouds: Clear
Visibility: 10 km
2021/04/16 02:30 YSCB 160230Z AUTO 29006KT 9999 // NCD 17/02 Q1021
YSTW - Tamworth Airport, Australia
Distance from station: N 275km
Updated: 16/04/2021 12:30
Partly cloudy
Partly cloudy
 Wind from S
Wind: S 13 km/h
Temperature: 22°C
Dew Point: 7°C
Humidity: 38%
Barometer: 1019 hPa
Clouds: Partly cloudy
Visibility: 10 km
Cloud details: Partly cloudy 3658 m
2021/04/16 02:30 YSTW 160230Z AUTO 19007KT 9999 // SCT120 22/07 Q1019 RF00.0/000.0
 
YSDU - Dubbo, Australia
Distance from station: WNW 280km
Updated: 16/04/2021 12:30
Clear
Clear
 Wind from ESE
Wind: ESE 17 km/h
Temperature: 21°C
Dew Point: 5°C
Humidity: 35%
Barometer: 1020 hPa
Clouds: Clear
Visibility: 10 km
2021/04/16 02:30 YSDU 160230Z AUTO 12009KT 9999 // NCD 21/05 Q1020 RF00.0/000.0
YPMQ - Port Macquarie, Australia
Distance from station: NE 284km
Updated: 15/04/2021 23:06
NOT Current
Clear
Clear
 Wind from calm
Wind: Calm
Temperature: 15°C
Dew Point: 15°C
Humidity: 100%
Barometer: 1014 hPa
Clouds: Clear
Visibility: 10 km
2021/04/15 13:06 YPMQ 151306Z AUTO 00000KT 9999 // NCD 15/15 Q1014
 
YCBB - Coonabarabran, Australia
Distance from station: NW 300km
Updated: 16/04/2021 12:00
Clear
Clear
 Wind from E
Wind: E 17 km/h
Temperature: 19°C
Dew Point: -1°C
Humidity: 26%
Barometer: 1020 hPa
Clouds: Clear
Visibility: 10 km
2021/04/16 02:00 YCBB 160200Z AUTO 10009KT 9999 // NCD 19/M01 Q1020